sensor_id;sensor_type;location;lat;lon;timestamp;temperature;humidity
69895;DHT22;57172;52.034;5.090;2023-03-14T00:01:15;11.10;75.20
69895;DHT22;57172;52.034;5.090;2023-03-14T00:03:43;11.10;75.20
69895;DHT22;57172;52.034;5.090;2023-03-14T00:06:11;11.10;75.10
69895;DHT22;57172;52.034;5.090;2023-03-14T00:08:39;11.10;75.20
69895;DHT22;57172;52.034;5.090;2023-03-14T00:11:18;11.10;75.00
69895;DHT22;57172;52.034;5.090;2023-03-14T00:13:52;11.10;74.80
69895;DHT22;57172;52.034;5.090;2023-03-14T00:16:19;11.10;74.40
69895;DHT22;57172;52.034;5.090;2023-03-14T00:18:46;11.10;74.60
69895;DHT22;57172;52.034;5.090;2023-03-14T00:21:13;11.10;73.90
69895;DHT22;57172;52.034;5.090;2023-03-14T00:23:41;11.20;73.30
69895;DHT22;57172;52.034;5.090;2023-03-14T00:26:13;11.20;73.30
69895;DHT22;57172;52.034;5.090;2023-03-14T00:28:41;11.20;73.70
69895;DHT22;57172;52.034;5.090;2023-03-14T00:31:10;11.20;72.80
69895;DHT22;57172;52.034;5.090;2023-03-14T00:33:39;11.20;73.00
69895;DHT22;57172;52.034;5.090;2023-03-14T00:36:12;11.20;72.50
69895;DHT22;57172;52.034;5.090;2023-03-14T00:38:40;11.30;72.90
69895;DHT22;57172;52.034;5.090;2023-03-14T00:41:13;11.30;72.70
69895;DHT22;57172;52.034;5.090;2023-03-14T00:43:40;11.30;72.40
69895;DHT22;57172;52.034;5.090;2023-03-14T00:46:08;11.30;72.40
69895;DHT22;57172;52.034;5.090;2023-03-14T00:48:35;11.30;72.50
69895;DHT22;57172;52.034;5.090;2023-03-14T00:51:07;11.30;72.90
69895;DHT22;57172;52.034;5.090;2023-03-14T00:53:39;11.30;72.70
69895;DHT22;57172;52.034;5.090;2023-03-14T00:56:08;11.30;72.80
69895;DHT22;57172;52.034;5.090;2023-03-14T00:58:36;11.20;73.10
69895;DHT22;57172;52.034;5.090;2023-03-14T01:01:08;11.10;73.40
69895;DHT22;57172;52.034;5.090;2023-03-14T01:03:35;11.00;73.80
69895;DHT22;57172;52.034;5.090;2023-03-14T01:06:12;10.90;74.50
69895;DHT22;57172;52.034;5.090;2023-03-14T01:08:42;10.80;75.40
69895;DHT22;57172;52.034;5.090;2023-03-14T01:11:12;10.60;76.40
69895;DHT22;57172;52.034;5.090;2023-03-14T01:13:39;10.40;77.60
69895;DHT22;57172;52.034;5.090;2023-03-14T01:16:08;10.20;78.70
69895;DHT22;57172;52.034;5.090;2023-03-14T01:18:37;10.00;79.20
69895;DHT22;57172;52.034;5.090;2023-03-14T01:21:30;10.00;79.60
69895;DHT22;57172;52.034;5.090;2023-03-14T01:23:59;9.90;79.90
69895;DHT22;57172;52.034;5.090;2023-03-14T01:26:29;9.90;80.30
69895;DHT22;57172;52.034;5.090;2023-03-14T01:28:57;9.90;80.40
69895;DHT22;57172;52.034;5.090;2023-03-14T01:31:24;9.90;80.50
69895;DHT22;57172;52.034;5.090;2023-03-14T01:33:52;9.90;80.60
69895;DHT22;57172;52.034;5.090;2023-03-14T01:36:20;9.90;80.50
69895;DHT22;57172;52.034;5.090;2023-03-14T01:38:47;9.90;80.30
69895;DHT22;57172;52.034;5.090;2023-03-14T01:41:19;10.00;80.20
69895;DHT22;57172;52.034;5.090;2023-03-14T01:43:47;10.00;80.00
69895;DHT22;57172;52.034;5.090;2023-03-14T01:46:39;10.00;79.80
69895;DHT22;57172;52.034;5.090;2023-03-14T01:51:59;10.10;79.10
69895;DHT22;57172;52.034;5.090;2023-03-14T01:54:40;10.20;78.80
69895;DHT22;57172;52.034;5.090;2023-03-14T01:59:40;10.30;78.50
69895;DHT22;57172;52.034;5.090;2023-03-14T02:02:10;10.30;78.30
69895;DHT22;57172;52.034;5.090;2023-03-14T02:04:40;10.30;78.50
69895;DHT22;57172;52.034;5.090;2023-03-14T02:10:05;10.30;78.40
69895;DHT22;57172;52.034;5.090;2023-03-14T02:12:34;10.30;78.50
69895;DHT22;57172;52.034;5.090;2023-03-14T02:15:12;10.20;78.60
69895;DHT22;57172;52.034;5.090;2023-03-14T02:17:57;10.20;78.70
69895;DHT22;57172;52.034;5.090;2023-03-14T02:21:05;10.20;78.70
69895;DHT22;57172;52.034;5.090;2023-03-14T02:24:04;10.20;78.70
69895;DHT22;57172;52.034;5.090;2023-03-14T02:26:41;10.20;78.70
69895;DHT22;57172;52.034;5.090;2023-03-14T02:29:09;10.20;78.70
69895;DHT22;57172;52.034;5.090;2023-03-14T02:31:36;10.20;78.80
69895;DHT22;57172;52.034;5.090;2023-03-14T02:34:04;10.20;78.80
69895;DHT22;57172;52.034;5.090;2023-03-14T02:36:32;10.20;78.80
69895;DHT22;57172;52.034;5.090;2023-03-14T02:39:11;10.20;78.60
69895;DHT22;57172;52.034;5.090;2023-03-14T02:41:43;10.20;78.70
69895;DHT22;57172;52.034;5.090;2023-03-14T02:44:12;10.30;78.60
69895;DHT22;57172;52.034;5.090;2023-03-14T02:46:39;10.30;78.50
69895;DHT22;57172;52.034;5.090;2023-03-14T02:49:10;10.30;78.60
69895;DHT22;57172;52.034;5.090;2023-03-14T02:51:40;10.30;78.60
69895;DHT22;57172;52.034;5.090;2023-03-14T02:54:08;10.30;78.60
69895;DHT22;57172;52.034;5.090;2023-03-14T02:56:35;10.30;78.70
69895;DHT22;57172;52.034;5.090;2023-03-14T02:59:04;10.20;78.80
69895;DHT22;57172;52.034;5.090;2023-03-14T03:01:52;10.20;78.80
69895;DHT22;57172;52.034;5.090;2023-03-14T03:04:18;10.30;78.90
69895;DHT22;57172;52.034;5.090;2023-03-14T03:06:45;10.30;78.90
69895;DHT22;57172;52.034;5.090;2023-03-14T03:09:13;10.30;78.80
69895;DHT22;57172;52.034;5.090;2023-03-14T03:11:40;10.30;78.70
69895;DHT22;57172;52.034;5.090;2023-03-14T03:14:10;10.30;78.60
69895;DHT22;57172;52.034;5.090;2023-03-14T03:16:37;10.30;78.50
69895;DHT22;57172;52.034;5.090;2023-03-14T03:19:04;10.30;78.40
69895;DHT22;57172;52.034;5.090;2023-03-14T03:21:31;10.30;78.60
69895;DHT22;57172;52.034;5.090;2023-03-14T03:23:58;10.40;78.50
69895;DHT22;57172;52.034;5.090;2023-03-14T03:26:25;10.40;78.40
69895;DHT22;57172;52.034;5.090;2023-03-14T03:28:52;10.40;78.10
69895;DHT22;57172;52.034;5.090;2023-03-14T03:31:19;10.40;78.30
69895;DHT22;57172;52.034;5.090;2023-03-14T03:33:47;10.40;78.20
69895;DHT22;57172;52.034;5.090;2023-03-14T03:36:14;10.40;78.00
69895;DHT22;57172;52.034;5.090;2023-03-14T03:38:40;10.40;77.80
69895;DHT22;57172;52.034;5.090;2023-03-14T03:41:08;10.40;77.80
69895;DHT22;57172;52.034;5.090;2023-03-14T03:43:35;10.40;77.90
69895;DHT22;57172;52.034;5.090;2023-03-14T03:46:05;10.40;77.70
69895;DHT22;57172;52.034;5.090;2023-03-14T03:48:33;10.50;77.60
69895;DHT22;57172;52.034;5.090;2023-03-14T03:51:03;10.50;77.50
69895;DHT22;57172;52.034;5.090;2023-03-14T03:53:30;10.50;77.40
69895;DHT22;57172;52.034;5.090;2023-03-14T03:56:04;10.50;77.30
69895;DHT22;57172;52.034;5.090;2023-03-14T03:58:32;10.50;76.80
69895;DHT22;57172;52.034;5.090;2023-03-14T04:00:59;10.50;76.80
69895;DHT22;57172;52.034;5.090;2023-03-14T04:03:26;10.60;77.00
69895;DHT22;57172;52.034;5.090;2023-03-14T04:06:00;10.60;76.80
69895;DHT22;57172;52.034;5.090;2023-03-14T04:08:28;10.60;76.80
69895;DHT22;57172;52.034;5.090;2023-03-14T04:11:00;10.70;76.80
69895;DHT22;57172;52.034;5.090;2023-03-14T04:13:44;10.70;76.70
69895;DHT22;57172;52.034;5.090;2023-03-14T04:16:20;10.70;76.60
69895;DHT22;57172;52.034;5.090;2023-03-14T04:18:49;10.70;76.40
69895;DHT22;57172;52.034;5.090;2023-03-14T04:21:19;10.70;76.50
69895;DHT22;57172;52.034;5.090;2023-03-14T04:23:49;10.70;76.40
69895;DHT22;57172;52.034;5.090;2023-03-14T04:26:17;10.70;76.30
69895;DHT22;57172;52.034;5.090;2023-03-14T04:28:44;10.70;76.20
69895;DHT22;57172;52.034;5.090;2023-03-14T04:31:14;10.70;76.40
69895;DHT22;57172;52.034;5.090;2023-03-14T04:33:41;10.70;76.30
69895;DHT22;57172;52.034;5.090;2023-03-14T04:36:12;10.70;76.20
69895;DHT22;57172;52.034;5.090;2023-03-14T04:38:39;10.70;76.40
69895;DHT22;57172;52.034;5.090;2023-03-14T04:41:07;10.70;76.60
69895;DHT22;57172;52.034;5.090;2023-03-14T04:43:35;10.70;76.40
69895;DHT22;57172;52.034;5.090;2023-03-14T04:46:05;10.70;76.40
69895;DHT22;57172;52.034;5.090;2023-03-14T04:48:33;10.70;76.50
69895;DHT22;57172;52.034;5.090;2023-03-14T04:51:00;10.70;76.40
69895;DHT22;57172;52.034;5.090;2023-03-14T04:53:31;10.70;76.70
69895;DHT22;57172;52.034;5.090;2023-03-14T04:56:01;10.70;76.80
69895;DHT22;57172;52.034;5.090;2023-03-14T04:58:34;10.60;77.00
69895;DHT22;57172;52.034;5.090;2023-03-14T05:01:06;10.60;77.10
69895;DHT22;57172;52.034;5.090;2023-03-14T05:03:45;10.60;77.30
69895;DHT22;57172;52.034;5.090;2023-03-14T05:06:31;10.50;77.40
69895;DHT22;57172;52.034;5.090;2023-03-14T05:09:23;10.40;77.90
69895;DHT22;57172;52.034;5.090;2023-03-14T05:12:31;10.30;78.70
69895;DHT22;57172;52.034;5.090;2023-03-14T05:15:45;10.10;79.30
69895;DHT22;57172;52.034;5.090;2023-03-14T05:18:45;10.00;79.90
69895;DHT22;57172;52.034;5.090;2023-03-14T05:21:35;9.90;80.50
69895;DHT22;57172;52.034;5.090;2023-03-14T05:24:16;9.80;80.90
69895;DHT22;57172;52.034;5.090;2023-03-14T05:27:01;9.80;81.50
69895;DHT22;57172;52.034;5.090;2023-03-14T05:29:40;9.80;81.80
69895;DHT22;57172;52.034;5.090;2023-03-14T05:32:27;9.70;82.30
69895;DHT22;57172;52.034;5.090;2023-03-14T05:34:54;9.70;82.60
69895;DHT22;57172;52.034;5.090;2023-03-14T05:37:38;9.70;83.00
69895;DHT22;57172;52.034;5.090;2023-03-14T05:40:24;9.70;83.20
69895;DHT22;57172;52.034;5.090;2023-03-14T05:43:02;9.60;83.50
69895;DHT22;57172;52.034;5.090;2023-03-14T05:45:49;9.60;83.70
69895;DHT22;57172;52.034;5.090;2023-03-14T05:48:45;9.50;84.20
69895;DHT22;57172;52.034;5.090;2023-03-14T05:51:24;9.50;84.50
69895;DHT22;57172;52.034;5.090;2023-03-14T05:54:00;9.50;84.70
69895;DHT22;57172;52.034;5.090;2023-03-14T05:56:45;9.50;84.80
69895;DHT22;57172;52.034;5.090;2023-03-14T05:59:37;9.50;85.10
69895;DHT22;57172;52.034;5.090;2023-03-14T06:02:12;9.50;85.40
69895;DHT22;57172;52.034;5.090;2023-03-14T06:04:55;9.40;85.50
69895;DHT22;57172;52.034;5.090;2023-03-14T06:07:22;9.40;85.80
69895;DHT22;57172;52.034;5.090;2023-03-14T06:09:49;9.50;85.80
69895;DHT22;57172;52.034;5.090;2023-03-14T06:12:17;9.50;85.90
69895;DHT22;57172;52.034;5.090;2023-03-14T06:14:45;9.50;85.90
69895;DHT22;57172;52.034;5.090;2023-03-14T06:17:12;9.60;86.10
69895;DHT22;57172;52.034;5.090;2023-03-14T06:19:55;9.50;86.10
69895;DHT22;57172;52.034;5.090;2023-03-14T06:22:22;9.50;86.00
69895;DHT22;57172;52.034;5.090;2023-03-14T06:24:49;9.30;85.70
69895;DHT22;57172;52.034;5.090;2023-03-14T06:27:17;9.20;85.30
69895;DHT22;57172;52.034;5.090;2023-03-14T06:29:44;9.10;85.00
69895;DHT22;57172;52.034;5.090;2023-03-14T06:32:11;9.00;84.90
69895;DHT22;57172;52.034;5.090;2023-03-14T06:34:38;9.00;85.10
69895;DHT22;57172;52.034;5.090;2023-03-14T06:37:05;8.80;84.90
69895;DHT22;57172;52.034;5.090;2023-03-14T06:39:33;8.80;85.10
69895;DHT22;57172;52.034;5.090;2023-03-14T06:42:06;8.70;85.10
69895;DHT22;57172;52.034;5.090;2023-03-14T06:44:33;8.70;85.30
69895;DHT22;57172;52.034;5.090;2023-03-14T06:47:00;8.70;85.50
69895;DHT22;57172;52.034;5.090;2023-03-14T06:49:27;8.60;85.40
69895;DHT22;57172;52.034;5.090;2023-03-14T06:51:56;8.60;85.50
69895;DHT22;57172;52.034;5.090;2023-03-14T06:54:23;8.60;85.50
69895;DHT22;57172;52.034;5.090;2023-03-14T06:56:52;8.60;85.60
69895;DHT22;57172;52.034;5.090;2023-03-14T06:59:18;8.60;85.50
69895;DHT22;57172;52.034;5.090;2023-03-14T07:01:47;8.60;85.70
69895;DHT22;57172;52.034;5.090;2023-03-14T07:04:17;8.60;85.60
69895;DHT22;57172;52.034;5.090;2023-03-14T07:06:47;8.60;85.80
69895;DHT22;57172;52.034;5.090;2023-03-14T07:09:14;8.60;85.70
69895;DHT22;57172;52.034;5.090;2023-03-14T07:11:49;8.60;85.60
69895;DHT22;57172;52.034;5.090;2023-03-14T07:14:16;8.60;85.60
69895;DHT22;57172;52.034;5.090;2023-03-14T07:16:45;8.50;85.70
69895;DHT22;57172;52.034;5.090;2023-03-14T07:19:12;8.60;85.80
69895;DHT22;57172;52.034;5.090;2023-03-14T07:21:40;8.60;85.70
69895;DHT22;57172;52.034;5.090;2023-03-14T07:24:10;8.60;85.70
69895;DHT22;57172;52.034;5.090;2023-03-14T07:26:37;8.50;85.40
69895;DHT22;57172;52.034;5.090;2023-03-14T07:29:05;8.50;85.20
69895;DHT22;57172;52.034;5.090;2023-03-14T07:31:32;8.50;85.20
69895;DHT22;57172;52.034;5.090;2023-03-14T07:33:59;8.50;85.20
69895;DHT22;57172;52.034;5.090;2023-03-14T07:36:31;8.50;85.30
69895;DHT22;57172;52.034;5.090;2023-03-14T07:38:58;8.50;85.20
69895;DHT22;57172;52.034;5.090;2023-03-14T07:41:37;8.50;85.10
69895;DHT22;57172;52.034;5.090;2023-03-14T07:44:40;8.50;85.00
69895;DHT22;57172;52.034;5.090;2023-03-14T07:47:07;8.50;85.10
69895;DHT22;57172;52.034;5.090;2023-03-14T07:49:34;8.50;85.20
69895;DHT22;57172;52.034;5.090;2023-03-14T07:52:01;8.50;85.30
69895;DHT22;57172;52.034;5.090;2023-03-14T07:54:28;8.60;85.10
69895;DHT22;57172;52.034;5.090;2023-03-14T07:56:55;8.60;84.80
69895;DHT22;57172;52.034;5.090;2023-03-14T07:59:22;8.60;84.60
69895;DHT22;57172;52.034;5.090;2023-03-14T08:01:49;8.60;84.60
69895;DHT22;57172;52.034;5.090;2023-03-14T08:04:16;8.60;84.80
69895;DHT22;57172;52.034;5.090;2023-03-14T08:06:42;8.60;84.20
69895;DHT22;57172;52.034;5.090;2023-03-14T08:09:09;8.60;84.30
69895;DHT22;57172;52.034;5.090;2023-03-14T08:11:37;8.60;84.20
69895;DHT22;57172;52.034;5.090;2023-03-14T08:14:04;8.60;83.60
69895;DHT22;57172;52.034;5.090;2023-03-14T08:16:31;8.60;83.60
69895;DHT22;57172;52.034;5.090;2023-03-14T08:18:58;8.50;83.50
69895;DHT22;57172;52.034;5.090;2023-03-14T08:21:24;8.50;83.20
69895;DHT22;57172;52.034;5.090;2023-03-14T08:23:51;8.40;81.90
69895;DHT22;57172;52.034;5.090;2023-03-14T08:26:18;8.20;81.30
69895;DHT22;57172;52.034;5.090;2023-03-14T08:28:45;8.10;81.50
69895;DHT22;57172;52.034;5.090;2023-03-14T08:31:12;8.00;81.70
69895;DHT22;57172;52.034;5.090;2023-03-14T08:33:39;8.00;82.40
69895;DHT22;57172;52.034;5.090;2023-03-14T08:36:06;8.00;81.70
69895;DHT22;57172;52.034;5.090;2023-03-14T08:38:33;7.90;81.70
69895;DHT22;57172;52.034;5.090;2023-03-14T08:41:01;7.90;81.90
69895;DHT22;57172;52.034;5.090;2023-03-14T08:43:29;7.90;81.40
69895;DHT22;57172;52.034;5.090;2023-03-14T08:46:00;7.90;81.50
69895;DHT22;57172;52.034;5.090;2023-03-14T08:48:27;7.80;81.20
69895;DHT22;57172;52.034;5.090;2023-03-14T08:50:54;7.80;81.40
69895;DHT22;57172;52.034;5.090;2023-03-14T08:53:21;7.80;81.10
69895;DHT22;57172;52.034;5.090;2023-03-14T08:55:55;7.80;81.40
69895;DHT22;57172;52.034;5.090;2023-03-14T08:58:21;7.90;81.20
69895;DHT22;57172;52.034;5.090;2023-03-14T09:00:50;8.10;83.00
69895;DHT22;57172;52.034;5.090;2023-03-14T09:03:17;8.40;82.70
69895;DHT22;57172;52.034;5.090;2023-03-14T09:05:44;8.70;80.60
69895;DHT22;57172;52.034;5.090;2023-03-14T09:08:11;8.90;80.80
69895;DHT22;57172;52.034;5.090;2023-03-14T09:10:38;8.90;79.10
69895;DHT22;57172;52.034;5.090;2023-03-14T09:13:05;9.00;79.20
69895;DHT22;57172;52.034;5.090;2023-03-14T09:15:32;9.00;78.80
69895;DHT22;57172;52.034;5.090;2023-03-14T09:17:59;9.00;78.50
69895;DHT22;57172;52.034;5.090;2023-03-14T09:20:26;9.10;78.50
69895;DHT22;57172;52.034;5.090;2023-03-14T09:22:54;9.10;77.60
69895;DHT22;57172;52.034;5.090;2023-03-14T09:25:21;9.00;76.40
69895;DHT22;57172;52.034;5.090;2023-03-14T09:27:47;9.00;77.20
69895;DHT22;57172;52.034;5.090;2023-03-14T09:30:14;9.00;77.40
69895;DHT22;57172;52.034;5.090;2023-03-14T09:32:41;9.00;76.30
69895;DHT22;57172;52.034;5.090;2023-03-14T09:35:08;8.90;75.90
69895;DHT22;57172;52.034;5.090;2023-03-14T09:37:36;8.90;75.40
69895;DHT22;57172;52.034;5.090;2023-03-14T09:40:03;8.90;73.90
69895;DHT22;57172;52.034;5.090;2023-03-14T09:42:37;8.80;74.40
69895;DHT22;57172;52.034;5.090;2023-03-14T09:45:26;8.80;75.00
69895;DHT22;57172;52.034;5.090;2023-03-14T09:47:55;8.90;75.60
69895;DHT22;57172;52.034;5.090;2023-03-14T09:50:27;8.90;75.10
69895;DHT22;57172;52.034;5.090;2023-03-14T09:53:01;8.90;73.80
69895;DHT22;57172;52.034;5.090;2023-03-14T09:55:29;8.90;74.70
69895;DHT22;57172;52.034;5.090;2023-03-14T09:58:04;8.90;74.10
69895;DHT22;57172;52.034;5.090;2023-03-14T10:00:35;8.80;73.50
69895;DHT22;57172;52.034;5.090;2023-03-14T10:05:39;8.80;74.40
69895;DHT22;57172;52.034;5.090;2023-03-14T10:08:10;8.80;73.50
69895;DHT22;57172;52.034;5.090;2023-03-14T10:10:37;8.70;74.70
69895;DHT22;57172;52.034;5.090;2023-03-14T10:13:19;8.70;73.90
69895;DHT22;57172;52.034;5.090;2023-03-14T10:16:00;8.70;73.90
69895;DHT22;57172;52.034;5.090;2023-03-14T10:18:29;8.60;74.80
69895;DHT22;57172;52.034;5.090;2023-03-14T10:23:32;8.40;73.80
69895;DHT22;57172;52.034;5.090;2023-03-14T10:26:07;8.30;73.90
69895;DHT22;57172;52.034;5.090;2023-03-14T10:28:47;8.30;74.80
69895;DHT22;57172;52.034;5.090;2023-03-14T10:31:15;8.30;74.80
69895;DHT22;57172;52.034;5.090;2023-03-14T10:33:58;8.50;75.50
69895;DHT22;57172;52.034;5.090;2023-03-14T10:36:33;8.70;76.20
69895;DHT22;57172;52.034;5.090;2023-03-14T10:39:25;9.00;74.70
69895;DHT22;57172;52.034;5.090;2023-03-14T10:42:01;9.10;73.30
69895;DHT22;57172;52.034;5.090;2023-03-14T10:44:30;9.20;73.10
69895;DHT22;57172;52.034;5.090;2023-03-14T10:47:03;9.40;74.40
69895;DHT22;57172;52.034;5.090;2023-03-14T10:49:33;9.90;77.30
69895;DHT22;57172;52.034;5.090;2023-03-14T10:52:20;10.30;73.90
69895;DHT22;57172;52.034;5.090;2023-03-14T10:55:09;10.50;72.30
69895;DHT22;57172;52.034;5.090;2023-03-14T10:57:40;10.40;69.70
69895;DHT22;57172;52.034;5.090;2023-03-14T11:00:20;10.00;67.50
69895;DHT22;57172;52.034;5.090;2023-03-14T11:08:25;9.20;69.30
69895;DHT22;57172;52.034;5.090;2023-03-14T11:11:25;9.10;68.90
69895;DHT22;57172;52.034;5.090;2023-03-14T11:19:53;9.30;70.80
69895;DHT22;57172;52.034;5.090;2023-03-14T11:22:51;10.00;78.60
69895;DHT22;57172;52.034;5.090;2023-03-14T11:25:37;11.40;81.50
69895;DHT22;57172;52.034;5.090;2023-03-14T11:30:52;14.30;76.60
69895;DHT22;57172;52.034;5.090;2023-03-14T11:33:45;15.10;69.70
69895;DHT22;57172;52.034;5.090;2023-03-14T11:36:22;15.60;66.40
69895;DHT22;57172;52.034;5.090;2023-03-14T11:38:57;15.70;63.50
69895;DHT22;57172;52.034;5.090;2023-03-14T11:41:33;16.10;67.30
69895;DHT22;57172;52.034;5.090;2023-03-14T11:49:43;16.90;61.20
69895;DHT22;57172;52.034;5.090;2023-03-14T11:52:27;17.10;57.70
69895;DHT22;57172;52.034;5.090;2023-03-14T11:55:21;17.20;55.20
69895;DHT22;57172;52.034;5.090;2023-03-14T11:58:00;17.00;53.20
69895;DHT22;57172;52.034;5.090;2023-03-14T12:00:29;16.60;53.20
69895;DHT22;57172;52.034;5.090;2023-03-14T12:06:15;16.90;52.70
69895;DHT22;57172;52.034;5.090;2023-03-14T12:08:53;16.80;49.00
69895;DHT22;57172;52.034;5.090;2023-03-14T12:11:35;16.40;49.20
69895;DHT22;57172;52.034;5.090;2023-03-14T12:14:03;16.10;49.90
69895;DHT22;57172;52.034;5.090;2023-03-14T12:16:47;16.00;53.80
69895;DHT22;57172;52.034;5.090;2023-03-14T12:22:00;16.20;55.10
69895;DHT22;57172;52.034;5.090;2023-03-14T12:24:30;16.30;52.30
69895;DHT22;57172;52.034;5.090;2023-03-14T12:27:02;16.30;57.10
69895;DHT22;57172;52.034;5.090;2023-03-14T12:29:30;16.30;51.80
69895;DHT22;57172;52.034;5.090;2023-03-14T12:34:31;16.40;54.90
69895;DHT22;57172;52.034;5.090;2023-03-14T12:40:29;16.70;53.20
69895;DHT22;57172;52.034;5.090;2023-03-14T12:42:40;16.80;55.80
69895;DHT22;57172;52.034;5.090;2023-03-14T12:45:43;17.10;52.40
69895;DHT22;57172;52.034;5.090;2023-03-14T12:48:30;17.30;52.40
69895;DHT22;57172;52.034;5.090;2023-03-14T12:51:04;17.90;54.50
69895;DHT22;57172;52.034;5.090;2023-03-14T12:56:35;18.40;51.60
69895;DHT22;57172;52.034;5.090;2023-03-14T13:01:47;18.70;47.90
69895;DHT22;57172;52.034;5.090;2023-03-14T13:04:27;18.60;50.40
69895;DHT22;57172;52.034;5.090;2023-03-14T13:07:10;18.80;51.10
69895;DHT22;57172;52.034;5.090;2023-03-14T13:12:52;19.40;52.40
69895;DHT22;57172;52.034;5.090;2023-03-14T13:17:53;20.00;51.50
69895;DHT22;57172;52.034;5.090;2023-03-14T13:22:51;20.20;50.40
69895;DHT22;57172;52.034;5.090;2023-03-14T13:25:18;20.00;52.00
69895;DHT22;57172;52.034;5.090;2023-03-14T13:27:47;19.90;49.20
69895;DHT22;57172;52.034;5.090;2023-03-14T13:30:27;19.70;51.60
69895;DHT22;57172;52.034;5.090;2023-03-14T13:32:55;19.60;49.70
69895;DHT22;57172;52.034;5.090;2023-03-14T13:35:30;19.50;47.70
69895;DHT22;57172;52.034;5.090;2023-03-14T13:38:04;19.40;47.60
69895;DHT22;57172;52.034;5.090;2023-03-14T13:40:38;19.10;49.00
69895;DHT22;57172;52.034;5.090;2023-03-14T13:43:24;18.60;45.00
69895;DHT22;57172;52.034;5.090;2023-03-14T13:45:55;17.80;44.00
69895;DHT22;57172;52.034;5.090;2023-03-14T13:48:27;16.90;39.60
69895;DHT22;57172;52.034;5.090;2023-03-14T13:51:05;15.70;42.40
69895;DHT22;57172;52.034;5.090;2023-03-14T13:53:43;15.10;46.40
69895;DHT22;57172;52.034;5.090;2023-03-14T13:56:11;14.70;47.40
69895;DHT22;57172;52.034;5.090;2023-03-14T13:58:39;14.40;49.10
69895;DHT22;57172;52.034;5.090;2023-03-14T14:03:41;15.10;52.70
69895;DHT22;57172;52.034;5.090;2023-03-14T14:09:15;15.40;51.50
69895;DHT22;57172;52.034;5.090;2023-03-14T14:15:14;14.80;45.90
69895;DHT22;57172;52.034;5.090;2023-03-14T14:20:29;13.60;47.40
69895;DHT22;57172;52.034;5.090;2023-03-14T14:23:15;13.20;46.80
69895;DHT22;57172;52.034;5.090;2023-03-14T14:25:43;12.80;47.20
69895;DHT22;57172;52.034;5.090;2023-03-14T14:28:26;12.50;45.90
69895;DHT22;57172;52.034;5.090;2023-03-14T14:33:41;11.80;50.40
69895;DHT22;57172;52.034;5.090;2023-03-14T14:41:34;11.00;50.50
69895;DHT22;57172;52.034;5.090;2023-03-14T14:44:03;10.80;50.50
69895;DHT22;57172;52.034;5.090;2023-03-14T14:46:32;10.70;52.10
69895;DHT22;57172;52.034;5.090;2023-03-14T14:49:06;10.70;52.20
69895;DHT22;57172;52.034;5.090;2023-03-14T14:51:43;10.70;52.80
69895;DHT22;57172;52.034;5.090;2023-03-14T14:54:14;10.60;50.40
69895;DHT22;57172;52.034;5.090;2023-03-14T14:56:50;10.50;52.30
69895;DHT22;57172;52.034;5.090;2023-03-14T14:59:28;10.40;52.70
69895;DHT22;57172;52.034;5.090;2023-03-14T15:02:00;10.30;49.80
69895;DHT22;57172;52.034;5.090;2023-03-14T15:04:30;10.20;51.40
69895;DHT22;57172;52.034;5.090;2023-03-14T15:06:57;10.10;51.00
69895;DHT22;57172;52.034;5.090;2023-03-14T15:09:24;10.00;50.80
69895;DHT22;57172;52.034;5.090;2023-03-14T15:11:51;10.00;51.70
69895;DHT22;57172;52.034;5.090;2023-03-14T15:14:18;10.10;52.30
69895;DHT22;57172;52.034;5.090;2023-03-14T15:16:45;10.20;52.30
69895;DHT22;57172;52.034;5.090;2023-03-14T15:19:23;10.20;53.70
69895;DHT22;57172;52.034;5.090;2023-03-14T15:21:52;10.20;54.10
69895;DHT22;57172;52.034;5.090;2023-03-14T15:24:20;10.30;55.20
69895;DHT22;57172;52.034;5.090;2023-03-14T15:26:47;10.30;55.00
69895;DHT22;57172;52.034;5.090;2023-03-14T15:29:14;10.30;54.90
69895;DHT22;57172;52.034;5.090;2023-03-14T15:31:41;10.30;52.70
69895;DHT22;57172;52.034;5.090;2023-03-14T15:34:11;10.20;51.10
69895;DHT22;57172;52.034;5.090;2023-03-14T15:36:38;10.10;50.30
69895;DHT22;57172;52.034;5.090;2023-03-14T15:39:06;10.00;52.00
69895;DHT22;57172;52.034;5.090;2023-03-14T15:41:33;9.90;53.50
69895;DHT22;57172;52.034;5.090;2023-03-14T15:44:01;9.90;54.00
69895;DHT22;57172;52.034;5.090;2023-03-14T15:46:28;9.90;55.20
69895;DHT22;57172;52.034;5.090;2023-03-14T15:48:57;9.90;53.30
69895;DHT22;57172;52.034;5.090;2023-03-14T15:51:24;9.90;55.30
69895;DHT22;57172;52.034;5.090;2023-03-14T15:53:51;10.10;55.40
69895;DHT22;57172;52.034;5.090;2023-03-14T15:56:19;10.10;56.40
69895;DHT22;57172;52.034;5.090;2023-03-14T15:58:47;10.20;56.50
69895;DHT22;57172;52.034;5.090;2023-03-14T16:01:14;10.30;54.80
69895;DHT22;57172;52.034;5.090;2023-03-14T16:03:44;10.20;55.00
69895;DHT22;57172;52.034;5.090;2023-03-14T16:06:12;10.00;53.20
69895;DHT22;57172;52.034;5.090;2023-03-14T16:08:40;9.80;55.80
69895;DHT22;57172;52.034;5.090;2023-03-14T16:11:08;9.70;55.90
69895;DHT22;57172;52.034;5.090;2023-03-14T16:13:36;9.50;55.00
69895;DHT22;57172;52.034;5.090;2023-03-14T16:16:05;9.40;55.90
69895;DHT22;57172;52.034;5.090;2023-03-14T16:18:34;9.40;56.60
69895;DHT22;57172;52.034;5.090;2023-03-14T16:21:04;9.30;55.70
69895;DHT22;57172;52.034;5.090;2023-03-14T16:23:33;9.20;56.40
69895;DHT22;57172;52.034;5.090;2023-03-14T16:26:07;9.20;58.30
69895;DHT22;57172;52.034;5.090;2023-03-14T16:28:34;9.20;59.80
69895;DHT22;57172;52.034;5.090;2023-03-14T16:31:06;9.30;57.60
69895;DHT22;57172;52.034;5.090;2023-03-14T16:33:35;9.30;56.70
69895;DHT22;57172;52.034;5.090;2023-03-14T16:36:04;9.20;55.00
69895;DHT22;57172;52.034;5.090;2023-03-14T16:38:35;9.10;55.40
69895;DHT22;57172;52.034;5.090;2023-03-14T16:41:14;9.00;56.80
69895;DHT22;57172;52.034;5.090;2023-03-14T16:43:42;8.90;54.30
69895;DHT22;57172;52.034;5.090;2023-03-14T16:46:16;8.80;53.60
69895;DHT22;57172;52.034;5.090;2023-03-14T16:48:44;8.70;55.00
69895;DHT22;57172;52.034;5.090;2023-03-14T16:51:12;8.70;56.20
69895;DHT22;57172;52.034;5.090;2023-03-14T16:53:40;8.80;57.20
69895;DHT22;57172;52.034;5.090;2023-03-14T16:56:07;9.00;57.60
69895;DHT22;57172;52.034;5.090;2023-03-14T16:58:34;8.90;57.30
69895;DHT22;57172;52.034;5.090;2023-03-14T17:01:08;8.80;56.10
69895;DHT22;57172;52.034;5.090;2023-03-14T17:03:47;8.70;58.30
69895;DHT22;57172;52.034;5.090;2023-03-14T17:06:20;8.70;59.00
69895;DHT22;57172;52.034;5.090;2023-03-14T17:08:49;8.90;59.60
69895;DHT22;57172;52.034;5.090;2023-03-14T17:11:17;9.00;59.50
69895;DHT22;57172;52.034;5.090;2023-03-14T17:13:44;9.10;59.10
69895;DHT22;57172;52.034;5.090;2023-03-14T17:16:12;8.90;57.80
69895;DHT22;57172;52.034;5.090;2023-03-14T17:18:39;8.80;58.20
69895;DHT22;57172;52.034;5.090;2023-03-14T17:21:06;8.70;58.20
69895;DHT22;57172;52.034;5.090;2023-03-14T17:23:34;8.50;59.00
69895;DHT22;57172;52.034;5.090;2023-03-14T17:26:01;8.40;58.80